Terminal Aerodrome Forecast
Issued by NWS

Home | Current Version | Previous Version | Text Only | Print | Product List | Glossary On
Versions: 1 2 3 4 5 6 7 8 9 10 11 12 13 14 15 16 17 18 19 20 21 22 23 24 25 26 27
000
FTUS44 KHGX 251120
TAFSGR
TAF
KSGR 251120Z 2512/2612 22008KT 5SM BR VCSH OVC025
      TEMPO 2512/2513 SHRA
     FM251400 27008KT P6SM BKN025
     FM251600 30010KT P6SM FEW100
     FM252300 VRB03KT P6SM FEW250
     FM260900 14003KT 6SM BR SCT010=

USA.gov is the U.S. government's official web portal to all federal, state and local government web resources and services.